Time;durP1;ratioP1;P1;durP2;ratioP2;P2;SDS_P1;SDS_P2;PMS_P1;PMS_P2;Temp;Humidity;BMP_temperature;BMP_pressure;BME280_temperature;BME280_humidity;BME280_pressure;Samples;Min_cycle;Max_cycle;Signal;HPM_P1;HPM_P2
2021/12/21 00:00:56;;;;;;;33.55;13.98;;;1.80;99.90;;;;;;5073689;28;20056;-80
2021/12/21 00:03:22;;;;;;;42.97;14.50;;;1.90;99.90;;;;;;5073552;28;20496;-81
2021/12/21 00:05:48;;;;;;;49.65;14.68;;;1.90;99.90;;;;;;5072372;28;20066;-78
2021/12/21 00:08:16;;;;;;;40.58;14.93;;;1.80;99.90;;;;;;5073610;28;20474;-81
2021/12/21 00:10:45;;;;;;;33.88;15.18;;;1.80;99.90;;;;;;5055782;28;20043;-81
2021/12/21 00:14:11;;;;;;;52.78;16.30;;;1.80;99.90;;;;;;5073212;28;20108;-80
2021/12/21 00:23:55;;;;;;;39.25;14.32;;;1.80;99.90;;;;;;5073385;28;20362;-81
2021/12/21 00:26:21;;;;;;;30.45;13.98;;;1.80;99.90;;;;;;5073080;28;20512;-81
2021/12/21 00:31:18;;;;;;;41.47;13.80;;;1.80;99.90;;;;;;5071669;28;20396;-80
2021/12/21 00:33:45;;;;;;;37.78;14.48;;;1.70;99.90;;;;;;5073415;28;20054;-81
2021/12/21 00:36:11;;;;;;;36.33;13.77;;;1.60;99.90;;;;;;5073194;28;20040;-82
2021/12/21 00:38:37;;;;;;;30.52;13.20;;;1.50;99.90;;;;;;5073099;28;20031;-81
2021/12/21 00:41:04;;;;;;;32.00;12.43;;;1.50;99.90;;;;;;5073069;28;20024;-80
2021/12/21 00:43:30;;;;;;;32.47;14.68;;;1.50;99.90;;;;;;5071932;28;20079;-82
2021/12/21 00:45:56;;;;;;;30.33;13.55;;;1.50;99.90;;;;;;5073021;28;20024;-81
2021/12/21 00:48:27;;;;;;;40.00;13.93;;;1.40;99.90;;;;;;5071711;28;20043;-81
2021/12/21 00:50:54;;;;;;;35.60;14.15;;;1.40;99.90;;;;;;5073122;28;20036;-81
2021/12/21 00:53:20;;;;;;;36.65;13.23;;;1.40;99.90;;;;;;5073142;28;20027;-81
2021/12/21 00:55:46;;;;;;;34.83;14.10;;;1.60;99.90;;;;;;5072973;28;20464;-81
2021/12/21 00:58:12;;;;;;;31.85;13.20;;;1.60;99.90;;;;;;5072792;28;20024;-81
2021/12/21 01:00:39;;;;;;;38.70;13.63;;;1.60;99.90;;;;;;5072980;28;20376;-81
2021/12/21 01:03:10;;;;;;;27.83;12.43;;;1.50;99.90;;;;;;5073043;28;20461;-81
2021/12/21 01:05:53;;;;;;;30.88;12.52;;;1.30;99.90;;;;;;5072140;28;20043;-82
2021/12/21 01:08:23;;;;;;;41.28;12.68;;;1.30;99.90;;;;;;5071275;28;20120;-81
2021/12/21 01:11:13;;;;;;;37.80;12.98;;;1.30;99.90;;;;;;5072869;28;20100;-80
2021/12/21 01:14:12;;;;;;;30.65;11.90;;;1.30;99.90;;;;;;5072845;28;20025;-82
2021/12/21 01:16:37;;;;;;;32.45;12.10;;;1.30;99.90;;;;;;5072498;28;20097;-81
2021/12/21 01:19:24;;;;;;;26.98;12.20;;;1.20;99.90;;;;;;5071245;28;20060;-81
2021/12/21 01:22:09;;;;;;;31.88;13.25;;;1.20;99.90;;;;;;5072775;28;20068;-81
2021/12/21 01:27:51;;;;;;;29.10;12.17;;;1.40;99.90;;;;;;5067844;28;20037;-83
2021/12/21 01:30:32;;;;;;;31.35;13.30;;;1.40;99.90;;;;;;5052397;28;20871;-82
2021/12/21 01:33:16;;;;;;;33.75;13.25;;;1.60;99.90;;;;;;5052438;28;20362;-80
2021/12/21 01:35:46;;;;;;;35.22;12.50;;;1.70;99.90;;;;;;5052792;28;20025;-82
2021/12/21 01:40:49;;;;;;;34.70;12.38;;;1.40;99.90;;;;;;5051465;28;20124;-82
2021/12/21 01:51:11;;;;;;;38.17;11.63;;;1.30;99.90;;;;;;5052298;28;20049;-81
2021/12/21 01:53:38;;;;;;;35.25;12.05;;;1.20;99.90;;;;;;5052459;28;20079;-82
2021/12/21 01:56:05;;;;;;;33.65;12.00;;;1.20;99.90;;;;;;5052485;28;20053;-81
2021/12/21 01:58:33;;;;;;;29.92;12.15;;;1.20;99.90;;;;;;5052455;28;20086;-81
2021/12/21 02:01:01;;;;;;;36.60;12.27;;;1.10;99.90;;;;;;5052594;28;20025;-81
2021/12/21 02:03:27;;;;;;;37.08;12.27;;;1.20;99.90;;;;;;5052246;28;20100;-81
2021/12/21 02:05:53;;;;;;;28.90;11.45;;;1.20;99.90;;;;;;5052418;28;20071;-82
2021/12/21 02:08:18;;;;;;;33.72;11.50;;;1.20;99.90;;;;;;5054947;28;20053;-82
2021/12/21 02:10:44;;;;;;;26.30;12.07;;;1.00;99.90;;;;;;5072300;28;20036;-82
2021/12/21 02:13:10;;;;;;;33.95;13.07;;;0.90;99.90;;;;;;5071985;28;20027;-81
2021/12/21 02:15:35;;;;;;;21.52;11.57;;;1.00;99.90;;;;;;5072075;28;20047;-82
2021/12/21 02:20:53;;;;;;;30.40;12.15;;;0.90;99.90;;;;;;5075650;28;20409;-82
2021/12/21 02:23:27;;;;;;;24.23;12.55;;;1.00;99.90;;;;;;5075714;28;20461;-81
2021/12/21 02:31:08;;;;;;;26.05;11.27;;;0.80;99.90;;;;;;5075448;28;20033;-82
2021/12/21 02:33:35;;;;;;;25.45;11.40;;;0.80;99.90;;;;;;5075777;28;20039;-82
2021/12/21 02:36:01;;;;;;;27.85;11.60;;;0.90;99.90;;;;;;5075399;28;20020;-82
2021/12/21 02:38:27;;;;;;;28.15;10.93;;;0.90;99.90;;;;;;5074383;28;20400;-82
2021/12/21 02:40:53;;;;;;;27.00;10.88;;;0.90;99.90;;;;;;5074209;28;20020;-80
2021/12/21 02:43:19;;;;;;;27.40;11.40;;;0.80;99.90;;;;;;5075079;28;20111;-82
2021/12/21 02:45:45;;;;;;;30.17;10.75;;;0.80;99.90;;;;;;5075292;28;20461;-82
2021/12/21 02:48:11;;;;;;;28.02;11.23;;;0.90;99.90;;;;;;5074028;28;20029;-82
2021/12/21 02:50:38;;;;;;;21.90;10.77;;;0.80;99.90;;;;;;5075713;28;20128;-82
2021/12/21 02:53:05;;;;;;;40.90;10.93;;;0.80;99.90;;;;;;5075041;28;20503;-81
2021/12/21 02:55:31;;;;;;;32.88;11.70;;;0.80;99.90;;;;;;5075206;28;20020;-81
2021/12/21 02:57:57;;;;;;;28.88;10.70;;;0.90;99.90;;;;;;5075221;28;20020;-81
2021/12/21 03:00:25;;;;;;;27.33;12.40;;;1.00;99.90;;;;;;5073741;28;20036;-82
2021/12/21 03:02:51;;;;;;;24.33;11.75;;;1.10;99.90;;;;;;5073755;28;20576;-82
2021/12/21 03:05:17;;;;;;;30.90;13.65;;;1.10;99.90;;;;;;5074837;28;20093;-82
2021/12/21 03:10:28;;;;;;;34.03;12.68;;;0.90;99.90;;;;;;5054897;28;20044;-82
2021/12/21 03:15:38;;;;;;;22.02;10.27;;;0.80;99.90;;;;;;5054825;28;20037;-82
2021/12/21 03:18:04;;;;;;;24.08;11.63;;;0.70;99.90;;;;;;5054795;28;20044;-81
2021/12/21 03:20:30;;;;;;;28.05;11.77;;;0.70;99.90;;;;;;5054423;28;20033;-82
2021/12/21 03:22:56;;;;;;;27.23;10.35;;;0.70;99.90;;;;;;5054834;28;20052;-80
2021/12/21 03:25:21;;;;;;;24.33;11.25;;;0.70;99.90;;;;;;5057166;28;20024;-82
2021/12/21 03:27:47;;;;;;;30.33;12.02;;;0.70;99.90;;;;;;5074284;28;20032;-81
2021/12/21 03:30:15;;;;;;;35.00;12.93;;;0.70;99.90;;;;;;5072332;28;20050;-82
2021/12/21 03:32:42;;;;;;;31.67;12.40;;;0.80;99.90;;;;;;5074528;28;20032;-82
2021/12/21 03:35:09;;;;;;;27.55;12.23;;;0.80;99.90;;;;;;5074452;28;20029;-80
2021/12/21 03:37:35;;;;;;;33.35;12.73;;;0.90;99.90;;;;;;5074292;28;20032;-81
2021/12/21 03:40:03;;;;;;;31.58;12.15;;;0.90;99.90;;;;;;5073942;28;20027;-81
2021/12/21 03:42:29;;;;;;;30.38;12.48;;;0.80;99.90;;;;;;5074001;28;20040;-81
2021/12/21 03:44:55;;;;;;;32.05;11.57;;;0.80;99.90;;;;;;5074376;28;20098;-82
2021/12/21 03:47:22;;;;;;;27.27;12.13;;;0.80;99.90;;;;;;5072712;28;20370;-82
2021/12/21 03:49:59;;;;;;;27.85;10.90;;;0.70;99.90;;;;;;5073995;28;20120;-82
2021/12/21 03:52:26;;;;;;;22.30;10.98;;;0.70;99.90;;;;;;5055863;28;20087;-81
2021/12/21 03:54:56;;;;;;;21.80;10.90;;;0.60;99.90;;;;;;5073798;28;20025;-82
2021/12/21 03:57:22;;;;;;;29.73;10.38;;;0.60;99.90;;;;;;5073981;28;20028;-82
2021/12/21 03:59:49;;;;;;;21.95;10.77;;;0.60;99.90;;;;;;5074063;28;20052;-81
2021/12/21 04:02:16;;;;;;;28.60;12.55;;;0.60;99.90;;;;;;5073855;28;20056;-81
2021/12/21 04:04:44;;;;;;;28.40;9.98;;;0.70;99.90;;;;;;5073778;28;20036;-81
2021/12/21 04:07:10;;;;;;;23.38;10.88;;;0.60;99.90;;;;;;5073694;28;20029;-81
2021/12/21 04:09:36;;;;;;;26.63;11.18;;;0.50;99.90;;;;;;5073266;28;20036;-81
2021/12/21 04:12:02;;;;;;;34.47;11.95;;;0.60;99.90;;;;;;5073503;28;20358;-81
2021/12/21 04:14:29;;;;;;;25.55;10.73;;;0.60;99.90;;;;;;5073569;28;20500;-79
2021/12/21 04:16:55;;;;;;;26.00;10.65;;;0.50;99.90;;;;;;5073863;28;20036;-82
2021/12/21 04:19:21;;;;;;;29.70;11.55;;;0.50;99.90;;;;;;5073382;28;20401;-81
2021/12/21 04:21:47;;;;;;;24.85;10.00;;;0.50;99.90;;;;;;5073568;28;20033;-81
2021/12/21 04:24:13;;;;;;;21.92;10.52;;;0.40;99.90;;;;;;5073110;28;20020;-82
2021/12/21 04:26:39;;;;;;;30.98;10.25;;;0.50;99.90;;;;;;5073268;28;20021;-81
2021/12/21 04:29:05;;;;;;;24.85;10.82;;;0.40;99.90;;;;;;5073476;28;20472;-81
2021/12/21 04:31:31;;;;;;;25.77;10.10;;;0.30;99.90;;;;;;5073291;28;20059;-81
2021/12/21 04:33:58;;;;;;;30.77;11.05;;;0.30;99.90;;;;;;5073807;28;20024;-81
2021/12/21 04:36:24;;;;;;;27.17;10.77;;;0.30;99.90;;;;;;5073449;28;20064;-81
2021/12/21 04:38:51;;;;;;;29.27;9.88;;;0.30;99.90;;;;;;5072876;28;20545;-81
2021/12/21 04:41:23;;;;;;;22.80;9.80;;;0.30;99.90;;;;;;5071855;28;20031;-81
2021/12/21 04:43:51;;;;;;;26.98;10.27;;;0.30;99.90;;;;;;5073210;28;20496;-81
2021/12/21 04:46:17;;;;;;;31.35;10.88;;;0.30;99.90;;;;;;5073056;28;20078;-81
2021/12/21 04:48:42;;;;;;;27.92;9.63;;;0.30;99.90;;;;;;5073050;28;20028;-81
2021/12/21 04:51:08;;;;;;;28.83;10.52;;;0.30;99.90;;;;;;5073051;28;20392;-81
2021/12/21 04:53:34;;;;;;;27.98;10.98;;;0.30;99.90;;;;;;5072777;28;20067;-81
2021/12/21 04:56:00;;;;;;;33.83;10.98;;;0.30;99.90;;;;;;5072976;28;20052;-81
2021/12/21 04:58:26;;;;;;;25.85;10.57;;;0.20;99.90;;;;;;5072903;28;20066;-81
2021/12/21 05:00:52;;;;;;;26.75;10.70;;;0.20;99.90;;;;;;5073100;28;20028;-81
2021/12/21 05:03:18;;;;;;;20.02;10.63;;;0.20;99.90;;;;;;5072855;28;20519;-80
2021/12/21 05:05:43;;;;;;;23.52;9.98;;;0.10;99.90;;;;;;5072689;28;20020;-81
2021/12/21 05:08:18;;;;;;;20.48;9.82;;;-0.10;99.90;;;;;;5071182;28;20041;-82
2021/12/21 05:10:51;;;;;;;23.95;10.48;;;-0.10;99.90;;;;;;5072905;28;20028;-80
2021/12/21 05:13:20;;;;;;;21.48;10.43;;;-0.10;99.90;;;;;;5072811;28;20451;-79
2021/12/21 05:15:46;;;;;;;28.90;10.05;;;-0.10;99.90;;;;;;5071801;28;20476;-80
2021/12/21 05:18:13;;;;;;;28.15;9.65;;;0.00;99.90;;;;;;5072683;28;20058;-79
2021/12/21 05:20:39;;;;;;;19.58;9.63;;;0.00;99.90;;;;;;5072374;28;20040;-80
2021/12/21 05:23:05;;;;;;;30.77;11.25;;;0.00;99.90;;;;;;5071370;28;20384;-80
2021/12/21 05:25:32;;;;;;;23.52;9.88;;;-0.10;99.90;;;;;;5072646;28;20421;-78
2021/12/21 05:27:58;;;;;;;22.92;9.93;;;0.00;99.90;;;;;;5072642;28;20111;-80
2021/12/21 05:30:25;;;;;;;28.30;10.70;;;0.00;99.90;;;;;;5072519;28;20056;-80
2021/12/21 05:32:51;;;;;;;21.52;9.60;;;-0.10;99.90;;;;;;5072423;28;20016;-80
2021/12/21 05:35:18;;;;;;;22.70;10.45;;;-0.20;99.90;;;;;;5071177;28;20025;-79
2021/12/21 05:37:44;;;;;;;23.05;9.35;;;-0.20;99.90;;;;;;5072782;28;20435;-80
2021/12/21 05:40:15;;;;;;;27.90;11.70;;;-0.30;99.90;;;;;;5072417;28;20021;-79
2021/12/21 05:42:44;;;;;;;30.20;11.18;;;-0.30;99.90;;;;;;5071519;28;20082;-80
2021/12/21 05:45:12;;;;;;;27.92;10.00;;;-0.20;99.90;;;;;;5071097;28;20066;-80
2021/12/21 05:47:39;;;;;;;34.55;10.85;;;-0.20;99.90;;;;;;5072525;28;20025;-80
2021/12/21 05:50:09;;;;;;;26.45;11.07;;;-0.10;99.90;;;;;;5071725;28;20473;-80
2021/12/21 05:52:35;;;;;;;35.67;10.40;;;-0.10;99.90;;;;;;5073338;28;20032;-80
2021/12/21 05:55:03;;;;;;;33.53;10.98;;;-0.10;99.90;;;;;;5076347;28;20040;-80
2021/12/21 05:57:29;;;;;;;28.33;10.95;;;0.00;99.90;;;;;;5075142;28;20027;-80
2021/12/21 05:59:54;;;;;;;30.17;11.20;;;-0.10;99.90;;;;;;5076294;28;20384;-79
2021/12/21 06:02:21;;;;;;;24.40;10.35;;;-0.10;99.90;;;;;;5076206;28;20029;-80
2021/12/21 06:04:47;;;;;;;29.60;10.57;;;-0.10;99.90;;;;;;5074772;28;20483;-80
2021/12/21 06:07:12;;;;;;;34.15;11.40;;;-0.20;99.90;;;;;;5076021;28;20052;-79
2021/12/21 06:09:39;;;;;;;35.22;11.38;;;-0.10;99.90;;;;;;5075693;28;20040;-80
2021/12/21 06:12:16;;;;;;;32.80;11.45;;;-0.20;99.90;;;;;;5074652;28;20029;-80
2021/12/21 06:23:03;;;;;;;24.33;10.23;;;-0.30;99.90;;;;;;5075906;28;20074;-80
2021/12/21 06:28:03;;;;;;;23.92;11.05;;;-0.30;99.90;;;;;;5075831;28;20032;-80
2021/12/21 06:30:29;;;;;;;31.40;10.55;;;-0.30;99.90;;;;;;5075440;28;20044;-80
2021/12/21 06:32:55;;;;;;;28.40;10.45;;;-0.30;99.90;;;;;;5074441;28;20113;-80
2021/12/21 06:35:21;;;;;;;21.67;10.13;;;-0.30;99.90;;;;;;5073892;28;20636;-79
2021/12/21 06:37:46;;;;;;;27.13;10.60;;;-0.30;99.90;;;;;;5075553;28;20424;-80
2021/12/21 06:40:12;;;;;;;27.27;11.05;;;-0.20;99.90;;;;;;5074070;28;20029;-79
2021/12/21 06:42:40;;;;;;;28.23;10.32;;;-0.20;99.90;;;;;;5075514;28;20075;-79
2021/12/21 06:45:13;;;;;;;30.65;9.98;;;-0.20;99.90;;;;;;5074118;28;20488;-79
2021/12/21 06:53:08;;;;;;;31.50;10.70;;;-0.20;99.90;;;;;;5075306;28;20110;-79
2021/12/21 06:55:34;;;;;;;26.17;11.55;;;-0.30;99.90;;;;;;5073816;28;20060;-80
2021/12/21 06:57:59;;;;;;;36.03;11.00;;;-0.30;99.90;;;;;;5075317;28;20032;-80
2021/12/21 07:00:25;;;;;;;29.00;10.65;;;-0.20;99.90;;;;;;5074897;28;20036;-79
2021/12/21 07:02:51;;;;;;;30.85;11.32;;;-0.30;99.90;;;;;;5073749;28;20033;-80
2021/12/21 07:05:17;;;;;;;23.98;10.68;;;-0.20;99.90;;;;;;5074892;28;20025;-79
2021/12/21 07:07:43;;;;;;;34.50;11.73;;;-0.30;99.90;;;;;;5074966;28;20028;-79
2021/12/21 07:10:13;;;;;;;26.73;11.95;;;-0.30;99.90;;;;;;5074799;28;20120;-79
2021/12/21 07:20:35;;;;;;;31.33;11.48;;;-0.50;99.90;;;;;;5074597;28;20047;-79
2021/12/21 07:23:02;;;;;;;26.20;10.85;;;-0.70;99.90;;;;;;5074796;28;20031;-79
2021/12/21 07:25:29;;;;;;;42.03;10.02;;;-0.60;99.90;;;;;;5074259;28;20472;-79
2021/12/21 07:27:55;;;;;;;30.92;11.38;;;-0.60;99.90;;;;;;5074438;28;20078;-79
2021/12/21 07:30:21;;;;;;;31.42;11.55;;;-0.60;99.90;;;;;;5073076;28;20435;-80
2021/12/21 07:32:47;;;;;;;26.83;11.48;;;-0.50;99.90;;;;;;5074241;28;20112;-79
2021/12/21 07:35:14;;;;;;;27.50;11.10;;;-0.50;99.90;;;;;;5074218;28;20447;-79
2021/12/21 07:37:39;;;;;;;30.85;11.23;;;-0.50;99.90;;;;;;5072849;28;20461;-80
2021/12/21 07:40:07;;;;;;;23.85;10.35;;;-0.50;99.90;;;;;;5074220;28;20035;-80
2021/12/21 07:42:33;;;;;;;28.88;10.50;;;-0.60;99.90;;;;;;5074026;28;20024;-80
2021/12/21 07:44:59;;;;;;;29.02;11.57;;;-0.50;99.90;;;;;;5074152;28;20104;-79
2021/12/21 07:47:25;;;;;;;31.25;11.50;;;-0.50;99.90;;;;;;5073696;28;20032;-79
2021/12/21 07:49:51;;;;;;;31.83;10.35;;;-0.60;99.90;;;;;;5074140;28;20047;-80
2021/12/21 07:52:17;;;;;;;29.00;11.63;;;-0.60;99.90;;;;;;5073931;28;20488;-80
2021/12/21 07:54:44;;;;;;;27.50;12.15;;;-0.60;99.90;;;;;;5073929;28;20040;-79
2021/12/21 07:57:10;;;;;;;26.77;10.88;;;-0.60;99.90;;;;;;5073584;28;20023;-78
2021/12/21 07:59:37;;;;;;;24.17;11.63;;;-0.70;99.90;;;;;;5074099;28;20024;-78
2021/12/21 08:02:04;;;;;;;34.78;12.70;;;-0.60;99.90;;;;;;5073616;28;20028;-80
2021/12/21 08:04:30;;;;;;;30.77;11.43;;;-0.50;99.90;;;;;;5073824;28;20381;-79
2021/12/21 08:07:00;;;;;;;32.50;11.50;;;-0.40;99.90;;;;;;5073576;28;20453;-79
2021/12/21 08:09:32;;;;;;;33.97;11.77;;;-0.40;99.90;;;;;;5073394;28;20040;-80
2021/12/21 08:14:47;;;;;;;33.90;10.45;;;-0.30;99.90;;;;;;5072880;28;19918;-76
2021/12/21 08:17:14;;;;;;;37.78;12.70;;;-0.30;99.90;;;;;;5072115;28;20086;-79
2021/12/21 08:19:39;;;;;;;40.90;12.05;;;-0.30;99.90;;;;;;5073379;28;20039;-79
2021/12/21 08:22:05;;;;;;;26.80;11.23;;;-0.30;99.90;;;;;;5073349;28;20036;-78
2021/12/21 08:24:33;;;;;;;25.63;11.95;;;-0.30;99.90;;;;;;5073635;28;20387;-79
2021/12/21 08:27:00;;;;;;;33.15;11.70;;;-0.20;99.90;;;;;;5073142;28;20082;-78
2021/12/21 08:29:27;;;;;;;29.60;11.38;;;-0.10;99.90;;;;;;5073110;28;20044;-80
2021/12/21 08:31:53;;;;;;;38.88;11.70;;;-0.10;99.90;;;;;;5073402;28;20017;-80
2021/12/21 08:34:18;;;;;;;65.38;25.50;;;0.10;99.90;;;;;;5073482;28;20093;-80
2021/12/21 08:36:45;;;;;;;43.55;17.08;;;0.20;99.90;;;;;;5073233;28;20477;-80
2021/12/21 08:39:11;;;;;;;43.80;15.43;;;0.20;99.90;;;;;;5073079;28;20028;-80
2021/12/21 08:41:41;;;;;;;36.75;14.38;;;0.30;99.90;;;;;;5073193;28;20114;-78
2021/12/21 08:44:09;;;;;;;33.58;17.02;;;0.40;99.90;;;;;;5072971;28;20036;-80
2021/12/21 08:46:35;;;;;;;44.30;18.88;;;0.60;99.90;;;;;;5073181;28;20074;-78
2021/12/21 08:49:01;;;;;;;48.25;19.25;;;0.90;99.90;;;;;;5073158;28;20040;-80
2021/12/21 08:51:27;;;;;;;43.60;17.10;;;1.10;99.90;;;;;;5072986;28;20469;-80
2021/12/21 08:53:53;;;;;;;47.97;19.10;;;1.30;99.90;;;;;;5072716;28;20469;-80
2021/12/21 08:56:18;;;;;;;40.88;16.13;;;1.60;99.90;;;;;;5073059;28;20071;-82
2021/12/21 08:58:44;;;;;;;59.22;14.85;;;1.80;99.90;;;;;;5071439;28;20107;-80
2021/12/21 09:01:10;;;;;;;38.53;13.82;;;2.10;99.90;;;;;;5072873;28;20484;-80
2021/12/21 09:03:37;;;;;;;31.45;11.93;;;2.50;99.90;;;;;;5072736;28;20068;-81
2021/12/21 09:06:03;;;;;;;39.33;12.93;;;2.90;99.90;;;;;;5072993;28;20085;-81
2021/12/21 09:08:29;;;;;;;33.05;11.55;;;3.20;99.90;;;;;;5072655;28;20361;-82
2021/12/21 09:11:02;;;;;;;28.00;10.80;;;3.60;99.90;;;;;;5073027;28;20033;-81
2021/12/21 09:13:28;;;;;;;40.83;12.35;;;4.20;99.90;;;;;;5073574;28;20029;-82
2021/12/21 09:15:53;;;;;;;34.53;10.80;;;4.80;99.90;;;;;;5073422;28;20075;-82
2021/12/21 09:18:19;;;;;;;33.58;12.35;;;5.30;99.90;;;;;;5071350;28;20507;-82
2021/12/21 09:20:45;;;;;;;33.72;10.40;;;5.40;99.90;;;;;;5071176;28;20132;-83
2021/12/21 09:23:12;;;;;;;24.65;9.73;;;5.80;99.90;;;;;;5071737;28;20043;-83
2021/12/21 09:25:38;;;;;;;22.73;9.05;;;6.40;99.90;;;;;;5072688;28;20117;-83
2021/12/21 09:28:04;;;;;;;26.13;9.80;;;6.80;99.90;;;;;;5074286;28;20492;-84
2021/12/21 09:30:30;;;;;;;29.13;9.32;;;7.00;99.90;;;;;;5076389;28;20032;-83
2021/12/21 09:32:57;;;;;;;30.13;8.75;;;7.20;99.90;;;;;;5076593;28;20028;-84
2021/12/21 09:35:24;;;;;;;26.70;9.13;;;7.70;99.90;;;;;;5076922;28;20025;-83
2021/12/21 09:37:51;;;;;;;44.22;10.95;;;8.10;99.90;;;;;;5075562;28;20491;-84
2021/12/21 09:40:20;;;;;;;22.92;9.85;;;8.60;99.90;;;;;;5075320;28;20531;-84
2021/12/21 09:42:46;;;;;;;29.70;9.13;;;8.60;99.90;;;;;;5076349;28;20028;-84
2021/12/21 09:45:12;;;;;;;42.10;10.45;;;8.80;99.90;;;;;;5076455;28;20108;-85
2021/12/21 09:47:38;;;;;;;37.85;9.05;;;8.90;99.90;;;;;;5075299;28;20078;-85
2021/12/21 09:50:06;;;;;;;25.98;9.15;;;9.60;99.90;;;;;;5076262;28;20032;-86
2021/12/21 09:52:33;;;;;;;37.70;10.90;;;9.30;98.70;;;;;;5079054;28;20082;-86
2021/12/21 09:55:00;;;;;;;33.97;10.85;;;9.40;99.30;;;;;;5076581;28;20366;-84
2021/12/21 09:57:27;;;;;;;31.95;10.68;;;9.70;99.60;;;;;;5076167;28;20496;-84
2021/12/21 09:59:53;;;;;;;26.65;8.90;;;10.30;99.00;;;;;;5076103;28;20033;-85
2021/12/21 10:02:22;;;;;;;31.55;10.20;;;10.10;98.30;;;;;;5075305;28;20020;-85
2021/12/21 10:04:49;;;;;;;28.50;9.48;;;9.80;98.70;;;;;;5075866;28;20040;-85
2021/12/21 10:07:18;;;;;;;28.55;9.05;;;9.80;98.70;;;;;;5075914;28;20504;-84
2021/12/21 10:09:46;;;;;;;28.20;8.93;;;9.80;98.50;;;;;;5075712;28;20040;-84
2021/12/21 10:12:28;;;;;;;30.38;10.20;;;9.30;98.30;;;;;;5075842;28;20032;-84
2021/12/21 10:15:16;;;;;;;20.25;8.85;;;8.70;98.40;;;;;;5076005;28;20119;-85
2021/12/21 10:17:50;;;;;;;25.95;9.07;;;8.40;99.90;;;;;;5075872;28;20044;-83
2021/12/21 10:20:49;;;;;;;23.58;9.50;;;8.30;99.90;;;;;;5074685;28;20484;-83
2021/12/21 10:23:34;;;;;;;31.77;9.32;;;8.20;99.90;;;;;;5073384;28;20025;-83
2021/12/21 10:26:08;;;;;;;32.60;9.80;;;8.50;99.90;;;;;;5074539;28;20381;-83
2021/12/21 10:28:44;;;;;;;25.63;8.65;;;8.90;99.90;;;;;;5074529;28;20067;-83
2021/12/21 10:31:29;;;;;;;21.92;8.75;;;8.80;99.90;;;;;;5075645;28;20500;-84
2021/12/21 10:33:57;;;;;;;23.33;8.05;;;8.90;99.90;;;;;;5075312;28;20066;-83
2021/12/21 10:36:25;;;;;;;20.73;8.45;;;9.50;99.90;;;;;;5075512;28;20410;-83
2021/12/21 10:38:57;;;;;;;22.38;9.10;;;9.80;99.10;;;;;;5073548;28;20028;-83
2021/12/21 10:41:38;;;;;;;17.17;8.18;;;10.40;98.10;;;;;;5072974;28;20119;-82
2021/12/21 10:44:16;;;;;;;20.13;7.65;;;10.40;97.20;;;;;;5074295;28;20045;-83
2021/12/21 10:46:45;;;;;;;18.90;8.05;;;10.80;97.30;;;;;;5073023;28;20111;-83
2021/12/21 10:49:17;;;;;;;23.90;8.43;;;10.50;97.20;;;;;;5056054;28;20487;-84
2021/12/21 10:52:10;;;;;;;22.85;8.25;;;10.80;97.40;;;;;;5074043;28;20555;-84
2021/12/21 10:54:44;;;;;;;20.25;7.82;;;10.60;96.60;;;;;;5073756;28;20063;-84
2021/12/21 10:57:18;;;;;;;22.52;7.55;;;11.00;96.30;;;;;;5074134;28;20108;-81
2021/12/21 10:59:48;;;;;;;20.77;7.78;;;10.60;96.80;;;;;;5074011;28;20055;-85
2021/12/21 11:02:24;;;;;;;25.45;7.70;;;11.10;95.70;;;;;;5074536;28;20021;-84
2021/12/21 11:04:56;;;;;;;25.17;7.88;;;10.00;96.50;;;;;;5055874;28;20036;-83
2021/12/21 11:07:38;;;;;;;18.13;7.47;;;9.90;96.40;;;;;;5073804;28;20037;-84
2021/12/21 11:10:17;;;;;;;14.07;7.18;;;9.80;97.40;;;;;;5071957;28;20093;-84
2021/12/21 11:12:47;;;;;;;21.00;7.22;;;10.50;96.00;;;;;;5072466;28;20036;-84
2021/12/21 11:15:16;;;;;;;23.30;7.88;;;10.60;96.80;;;;;;5073698;28;20097;-84
2021/12/21 11:17:42;;;;;;;20.17;7.95;;;10.90;95.60;;;;;;5072561;28;20032;-84
2021/12/21 11:20:09;;;;;;;20.80;8.95;;;10.50;96.30;;;;;;5035489;28;1102662;-84
2021/12/21 11:22:37;;;;;;;23.60;6.70;;;11.40;95.40;;;;;;5075394;28;20033;-85
2021/12/21 11:25:03;;;;;;;20.10;6.57;;;11.40;94.40;;;;;;5074216;28;20063;-84
2021/12/21 11:27:31;;;;;;;17.33;6.93;;;12.00;94.10;;;;;;5072959;28;20024;-85
2021/12/21 11:30:03;;;;;;;18.73;6.53;;;11.70;93.80;;;;;;5074215;28;20124;-82
2021/12/21 11:32:31;;;;;;;19.40;7.05;;;11.80;93.90;;;;;;5074492;28;20044;-86
2021/12/21 11:37:44;;;;;;;18.23;8.30;;;12.40;94.00;;;;;;5072806;28;20032;-84
2021/12/21 11:40:14;;;;;;;21.20;8.50;;;12.30;93.60;;;;;;5074354;28;20469;-85
2021/12/21 11:42:51;;;;;;;21.42;7.07;;;12.80;93.10;;;;;;5072938;28;20021;-87
2021/12/21 11:45:34;;;;;;;14.18;6.22;;;12.90;92.20;;;;;;5074354;28;20501;-86
2021/12/21 11:48:09;;;;;;;13.68;5.53;;;12.80;92.40;;;;;;5074070;28;20047;-85
2021/12/21 11:50:40;;;;;;;17.13;6.50;;;12.30;92.20;;;;;;5072784;28;20539;-85
2021/12/21 11:53:08;;;;;;;15.17;6.33;;;12.30;92.40;;;;;;5055919;28;20025;-85
2021/12/21 11:55:37;;;;;;;21.25;6.53;;;11.40;93.40;;;;;;5074095;28;20337;-85
2021/12/21 11:58:18;;;;;;;18.23;6.63;;;11.90;92.70;;;;;;5073862;28;20071;-85
2021/12/21 12:00:51;;;;;;;12.82;6.20;;;11.30;93.00;;;;;;5073878;28;20043;-85
2021/12/21 12:03:20;;;;;;;22.27;6.90;;;12.20;92.80;;;;;;5073740;28;20037;-84
2021/12/21 12:06:04;;;;;;;24.65;7.95;;;12.10;93.00;;;;;;5073631;28;20078;-83
2021/12/21 12:08:55;;;;;;;14.57;6.30;;;12.60;91.60;;;;;;5072109;28;20032;-82
2021/12/21 12:11:35;;;;;;;17.08;6.70;;;11.90;92.40;;;;;;5073399;28;20037;-85
2021/12/21 12:14:08;;;;;;;14.48;6.43;;;10.90;93.10;;;;;;5073550;28;20362;-86
2021/12/21 12:16:58;;;;;;;16.40;6.78;;;11.00;93.30;;;;;;5072630;28;20036;-86
2021/12/21 12:19:31;;;;;;;11.82;6.55;;;11.40;93.70;;;;;;5073230;28;20036;-86
2021/12/21 12:22:03;;;;;;;12.93;6.05;;;12.50;92.60;;;;;;5073171;28;20052;-82
2021/12/21 12:24:39;;;;;;;13.60;5.75;;;13.10;91.60;;;;;;5072161;28;20032;-83
2021/12/21 12:27:19;;;;;;;14.60;5.70;;;13.10;91.10;;;;;;5071685;28;20021;-82
2021/12/21 12:29:52;;;;;;;11.23;6.15;;;13.20;91.70;;;;;;5073523;28;20046;-82
2021/12/21 12:32:50;;;;;;;19.00;6.18;;;13.80;91.70;;;;;;5073045;28;20020;-80
2021/12/21 12:35:19;;;;;;;18.23;5.35;;;14.20;91.20;;;;;;5072608;28;20040;-82
2021/12/21 12:37:58;;;;;;;16.85;5.75;;;13.80;90.00;;;;;;5073025;28;20082;-80
2021/12/21 12:40:33;;;;;;;14.38;5.95;;;14.20;90.50;;;;;;5073271;28;20028;-80
2021/12/21 12:43:04;;;;;;;14.07;6.25;;;14.10;90.60;;;;;;5071770;28;20115;-81
2021/12/21 12:45:36;;;;;;;18.15;5.72;;;14.60;90.50;;;;;;5073255;28;20047;-81
2021/12/21 12:48:03;;;;;;;14.25;5.97;;;14.50;90.30;;;;;;5073281;28;20028;-82
2021/12/21 12:50:36;;;;;;;16.88;7.22;;;14.80;90.10;;;;;;5073240;28;20036;-82
2021/12/21 12:53:07;;;;;;;10.80;6.40;;;15.00;89.10;;;;;;5073371;28;20033;-81
2021/12/21 12:55:53;;;;;;;20.05;7.03;;;15.30;88.10;;;;;;5073390;28;20037;-82
2021/12/21 12:58:22;;;;;;;18.40;6.38;;;15.30;87.90;;;;;;5073334;28;20039;-83
2021/12/21 13:01:18;;;;;;;16.35;6.72;;;15.40;88.20;;;;;;5073168;28;20098;-82
2021/12/21 13:03:44;;;;;;;16.00;6.15;;;15.10;87.40;;;;;;5072206;28;20024;-82
2021/12/21 13:06:17;;;;;;;17.70;6.43;;;13.70;89.60;;;;;;5073064;28;20040;-82
2021/12/21 13:08:44;;;;;;;13.93;6.57;;;13.90;90.70;;;;;;5072940;28;20115;-82
2021/12/21 13:11:12;;;;;;;23.42;7.57;;;14.10;89.90;;;;;;5072748;28;20077;-82
2021/12/21 13:13:44;;;;;;;14.50;5.43;;;13.80;90.30;;;;;;5071638;28;20031;-82
2021/12/21 13:16:15;;;;;;;19.05;6.20;;;14.60;89.40;;;;;;5071609;28;20424;-83
2021/12/21 13:18:47;;;;;;;18.27;6.43;;;14.40;90.30;;;;;;5072569;28;20067;-82
2021/12/21 13:21:21;;;;;;;;;;;14.90;90.00;;;;;;5072762;28;20039;-82
2021/12/21 13:23:50;;;;;;;17.42;5.53;;;15.20;89.40;;;;;;5072754;28;19916;-83
2021/12/21 13:26:16;;;;;;;15.13;5.70;;;15.10;87.00;;;;;;5072661;28;20012;-83
2021/12/21 13:28:53;;;;;;;9.55;5.53;;;15.20;87.20;;;;;;5072495;28;20031;-82
2021/12/21 13:31:22;;;;;;;15.18;5.78;;;15.10;87.60;;;;;;5072710;28;20028;-82
2021/12/21 13:33:54;;;;;;;11.90;5.78;;;15.20;87.30;;;;;;5072350;28;20024;-82
2021/12/21 13:36:41;;;;;;;18.23;6.03;;;14.70;87.50;;;;;;5072724;28;20036;-83
2021/12/21 13:39:25;;;;;;;19.98;5.82;;;16.30;86.80;;;;;;5071439;28;20434;-82
2021/12/21 13:41:53;;;;;;;15.73;5.93;;;15.90;87.30;;;;;;5072653;28;20025;-82
2021/12/21 13:44:27;;;;;;;15.23;5.78;;;16.20;86.10;;;;;;5072540;28;20095;-82
2021/12/21 13:46:55;;;;;;;12.75;5.43;;;16.10;86.90;;;;;;5072499;28;20036;-84
2021/12/21 13:49:20;;;;;;;11.48;5.95;;;14.70;88.00;;;;;;5072201;28;20068;-83
2021/12/21 13:51:51;;;;;;;13.63;5.28;;;15.20;86.50;;;;;;5071324;28;20439;-83
2021/12/21 13:54:18;;;;;;;16.90;5.57;;;16.30;86.20;;;;;;5054424;28;20021;-83